Time;durP1;ratioP1;P1;durP2;ratioP2;P2;SDS_P1;SDS_P2;PMS_P1;PMS_P2;Temp;Humidity;BMP_temperature;BMP_pressure;BME280_temperature;BME280_humidity;BME280_pressure;Samples;Min_cycle;Max_cycle;Signal;HPM_P1;HPM_P2
2023/02/01 00:00:46;;;;;;;29.10;11.60;;;;;;;1.10;100.00;99998.27;109233;1252;73633;-89
2023/02/01 00:03:35;;;;;;;26.00;11.70;;;;;;;1.11;100.00;99997.52;109411;1256;60857;-89
2023/02/01 00:06:25;;;;;;;24.50;11.70;;;;;;;1.15;100.00;99994.86;109196;1253;60207;-89
2023/02/01 00:09:14;;;;;;;24.60;11.20;;;;;;;1.21;100.00;99996.59;109469;1254;72367;-89
2023/02/01 00:12:03;;;;;;;27.70;12.10;;;;;;;1.08;100.00;99996.45;109411;1254;68535;-89
2023/02/01 00:14:52;;;;;;;24.50;11.70;;;;;;;1.01;100.00;99992.94;109297;1254;73661;-89
2023/02/01 00:17:41;;;;;;;24.60;11.50;;;;;;;1.02;100.00;99989.81;109058;1253;60370;-89
2023/02/01 00:20:31;;;;;;;26.60;11.10;;;;;;;0.98;100.00;99988.55;109383;1254;60074;-89
2023/02/01 00:23:19;;;;;;;29.40;13.40;;;;;;;0.99;100.00;99985.45;109340;1253;74171;-88
2023/02/01 00:26:37;;;;;;;25.40;11.80;;;;;;;0.95;100.00;99986.30;109399;1257;69317;-89
2023/02/01 00:29:27;;;;;;;27.90;12.10;;;;;;;1.01;100.00;99988.63;109381;1253;73668;-89
2023/02/01 00:32:15;;;;;;;23.10;11.50;;;;;;;1.04;100.00;99983.42;109136;1258;60895;-89
2023/02/01 00:35:08;;;;;;;24.60;11.40;;;;;;;1.04;100.00;99978.28;109190;1254;60049;-89
2023/02/01 00:37:59;;;;;;;25.90;10.80;;;;;;;1.08;100.00;99981.39;109204;1254;75773;-89
2023/02/01 00:40:48;;;;;;;27.60;12.60;;;;;;;1.11;100.00;99979.96;109360;1254;69711;-89
2023/02/01 00:43:37;;;;;;;22.30;11.20;;;;;;;1.12;100.00;99981.61;109271;1257;72630;-90
2023/02/01 00:46:26;;;;;;;24.40;12.10;;;;;;;1.13;100.00;99978.39;109251;1255;59602;-90
2023/02/01 00:49:15;;;;;;;25.10;11.20;;;;;;;1.09;100.00;99977.71;109251;1254;61242;-89
2023/02/01 00:52:04;;;;;;;23.70;10.80;;;;;;;1.13;100.00;99972.25;109248;1257;74866;-89
2023/02/01 00:54:53;;;;;;;19.00;9.90;;;;;;;1.12;100.00;99968.52;109114;1255;69758;-89
2023/02/01 00:57:42;;;;;;;18.60;10.00;;;;;;;1.13;100.00;99963.34;108976;1255;73420;-90
2023/02/01 01:00:32;;;;;;;23.00;10.60;;;;;;;1.12;100.00;99962.82;109093;1254;61063;-90
2023/02/01 01:03:21;;;;;;;25.40;11.80;;;;;;;1.07;100.00;99964.89;109142;1254;61276;-90
2023/02/01 01:06:15;;;;;;;23.80;10.50;;;;;;;1.06;100.00;99960.41;109104;1254;74745;-90
2023/02/01 01:09:05;;;;;;;21.50;10.50;;;;;;;1.08;100.00;99960.67;109405;1253;69622;-90
2023/02/01 01:11:54;;;;;;;20.50;10.00;;;;;;;1.06;100.00;99959.83;109394;1253;72476;-89
2023/02/01 01:14:43;;;;;;;21.70;9.80;;;;;;;1.04;100.00;99960.20;109242;1256;58707;-91
2023/02/01 01:17:33;;;;;;;27.10;10.80;;;;;;;1.02;100.00;99961.67;109260;1254;60257;-90
2023/02/01 01:20:22;;;;;;;22.10;9.50;;;;;;;1.04;100.00;99961.27;109385;1254;74846;-90
2023/02/01 01:23:11;;;;;;;22.20;9.80;;;;;;;1.06;100.00;99961.56;109415;1253;69764;-91
2023/02/01 01:26:00;;;;;;;23.20;10.70;;;;;;;1.05;100.00;99962.50;109402;1254;73657;-91
2023/02/01 01:28:49;;;;;;;20.60;8.70;;;;;;;1.06;100.00;99963.64;109295;1256;60281;-90
2023/02/01 01:31:38;;;;;;;21.50;10.50;;;;;;;1.06;100.00;99966.04;109280;1252;61238;-91
2023/02/01 01:34:27;;;;;;;19.20;9.20;;;;;;;1.06;100.00;99965.14;109245;1253;73803;-90
2023/02/01 01:37:16;;;;;;;18.00;8.90;;;;;;;1.03;100.00;99965.50;109328;1254;69459;-91
2023/02/01 01:40:06;;;;;;;22.90;9.90;;;;;;;1.05;100.00;99963.38;109332;1256;73651;-91
2023/02/01 01:42:55;;;;;;;19.30;8.50;;;;;;;1.04;100.00;99959.29;109185;1254;62069;-91
2023/02/01 01:45:44;;;;;;;17.20;8.20;;;;;;;1.04;100.00;99956.68;109219;1254;61294;-90
2023/02/01 01:48:34;;;;;;;23.00;8.70;;;;;;;1.00;100.00;99955.13;109214;1256;73567;-90
2023/02/01 01:51:23;;;;;;;16.60;8.90;;;;;;;0.97;100.00;99951.34;109093;1256;69932;-90
2023/02/01 01:54:17;;;;;;;17.70;8.00;;;;;;;0.91;100.00;99952.02;109112;1253;73702;-90
2023/02/01 01:57:14;;;;;;;19.70;8.20;;;;;;;0.88;100.00;99951.89;109268;1252;59570;-91
2023/02/01 02:00:08;;;;;;;15.10;8.00;;;;;;;0.84;100.00;99954.10;109211;1253;61238;-90
2023/02/01 02:03:33;;;;;;;13.60;7.40;;;;;;;0.79;100.00;99953.17;109366;1253;75882;-91
2023/02/01 02:06:41;;;;;;;19.10;8.40;;;;;;;0.72;100.00;99955.33;109323;1256;69699;-90
2023/02/01 02:09:30;;;;;;;14.90;6.90;;;;;;;0.67;100.00;99955.19;109335;1254;73602;-90
2023/02/01 02:12:19;;;;;;;28.10;8.10;;;;;;;0.71;100.00;99956.66;109593;1258;61155;-90
2023/02/01 02:15:08;;;;;;;15.90;7.10;;;;;;;0.68;100.00;99956.90;109453;1254;60448;-90
2023/02/01 02:18:10;;;;;;;17.50;7.90;;;;;;;0.68;100.00;99959.38;109248;1253;74844;-90
2023/02/01 02:21:38;;;;;;;15.80;8.30;;;;;;;0.72;100.00;99960.66;109278;1251;69539;-89
2023/02/01 02:24:49;;;;;;;18.20;7.70;;;;;;;0.76;100.00;99960.36;108855;1260;73704;-90
2023/02/01 02:27:43;;;;;;;16.20;6.60;;;;;;;0.68;100.00;99956.63;109420;1251;60465;-90
2023/02/01 02:31:01;;;;;;;15.10;7.90;;;;;;;0.72;100.00;99957.98;109307;1254;59203;-91
2023/02/01 02:34:05;;;;;;;13.30;6.90;;;;;;;0.76;100.00;99953.30;109031;1258;74581;-90
2023/02/01 02:36:59;;;;;;;20.60;7.40;;;;;;;0.75;100.00;99956.98;109205;1253;69529;-91
2023/02/01 02:39:56;;;;;;;12.20;6.40;;;;;;;0.77;100.00;99964.20;109150;1253;72476;-90
2023/02/01 02:49:34;;;;;;;16.00;7.50;;;;;;;0.85;100.00;99966.04;109274;1254;72834;-91
2023/02/01 03:05:20;;;;;;;20.20;7.70;;;;;;;0.74;100.00;99963.41;109317;1254;73275;-89
2023/02/01 03:08:09;;;;;;;16.30;7.00;;;;;;;0.76;100.00;99961.81;109242;1256;68125;-89
2023/02/01 03:11:05;;;;;;;17.60;6.80;;;;;;;0.79;100.00;99963.52;109289;1254;73600;-90
2023/02/01 03:13:58;;;;;;;14.10;6.80;;;;;;;0.84;100.00;99966.54;109434;1252;59788;-90
2023/02/01 03:16:51;;;;;;;;;;;;;;;0.87;100.00;99962.21;109273;1254;60030;-89
2023/02/01 03:19:47;;;;;;;17.20;6.70;;;;;;;0.99;100.00;99963.70;109239;1253;72825;-90
2023/02/01 03:22:36;;;;;;;16.50;6.80;;;;;;;0.98;100.00;99965.29;109121;1255;69414;-90
2023/02/01 03:25:27;;;;;;;13.10;7.10;;;;;;;1.00;100.00;99962.06;109181;1251;72736;-91
2023/02/01 03:28:16;;;;;;;16.40;7.10;;;;;;;1.01;100.00;99964.05;109295;1251;60305;-89
2023/02/01 03:31:05;;;;;;;16.40;6.30;;;;;;;0.96;100.00;99966.15;109240;1254;61292;-90
2023/02/01 03:33:54;;;;;;;13.00;6.10;;;;;;;0.91;100.00;99962.85;109158;1252;74862;-91
2023/02/01 03:36:50;;;;;;;13.80;6.50;;;;;;;0.97;100.00;99966.88;109358;1256;70130;-90
2023/02/01 03:39:47;;;;;;;13.90;6.00;;;;;;;1.00;100.00;99967.14;109135;1253;73389;-91
2023/02/01 03:42:38;;;;;;;9.90;5.50;;;;;;;1.00;100.00;99972.41;109169;1251;61567;-90
2023/02/01 03:45:31;;;;;;;13.70;5.90;;;;;;;0.97;100.00;99975.23;109432;1251;59217;-90
2023/02/01 03:48:20;;;;;;;14.10;6.70;;;;;;;1.03;100.00;99970.55;109191;1254;73783;-90
2023/02/01 03:51:09;;;;;;;18.10;7.70;;;;;;;1.08;100.00;99968.47;109127;1255;69183;-91
2023/02/01 03:54:02;;;;;;;15.10;7.10;;;;;;;1.05;100.00;99966.40;109290;1253;73328;-90
2023/02/01 03:56:51;;;;;;;16.80;7.70;;;;;;;1.02;100.00;99968.05;109111;1253;59677;-90
2023/02/01 03:59:44;;;;;;;23.80;8.40;;;;;;;0.98;100.00;99970.79;109315;1251;60312;-91
2023/02/01 04:02:33;;;;;;;22.20;9.30;;;;;;;0.95;100.00;99973.56;109430;1251;74723;-89
2023/02/01 04:05:23;;;;;;;15.90;7.80;;;;;;;0.92;100.00;99976.64;109217;1251;69703;-90
2023/02/01 04:08:24;;;;;;;21.50;9.60;;;;;;;0.90;100.00;99977.48;109198;1253;73931;-90
2023/02/01 04:11:12;;;;;;;14.20;5.90;;;;;;;0.99;100.00;99982.00;109242;1253;60914;-90
2023/02/01 04:14:04;;;;;;;10.50;5.70;;;;;;;1.07;100.00;99985.20;109254;1253;59334;-91
2023/02/01 04:16:55;;;;;;;14.20;6.80;;;;;;;1.19;100.00;99983.88;109184;1254;74980;-89
2023/02/01 04:19:44;;;;;;;10.20;6.00;;;;;;;1.23;100.00;99988.67;109314;1253;68708;-90
2023/02/01 04:22:35;;;;;;;13.00;5.60;;;;;;;1.28;100.00;99993.43;109387;1253;72558;-90
2023/02/01 04:25:24;;;;;;;12.50;6.10;;;;;;;1.32;100.00;99991.92;109398;1251;59321;-90
2023/02/01 04:28:14;;;;;;;12.50;5.60;;;;;;;1.20;100.00;99991.77;109325;1251;61986;-89
2023/02/01 04:31:03;;;;;;;12.50;6.30;;;;;;;1.20;100.00;99996.13;109411;1251;73868;-89
2023/02/01 04:33:53;;;;;;;13.10;5.50;;;;;;;1.20;100.00;99998.06;109376;1253;69719;-90
2023/02/01 04:36:42;;;;;;;13.00;5.20;;;;;;;1.19;100.00;99994.21;109288;1254;73610;-90
2023/02/01 04:39:34;;;;;;;9.50;4.30;;;;;;;1.21;100.00;99996.30;109414;1253;60403;-91
2023/02/01 04:42:23;;;;;;;13.10;5.30;;;;;;;1.12;100.00;99996.09;109203;1251;61043;-91
2023/02/01 04:45:12;;;;;;;11.30;5.40;;;;;;;1.00;100.00;99995.38;109129;1253;74803;-89
2023/02/01 04:48:02;;;;;;;10.00;4.90;;;;;;;0.96;100.00;99995.36;109436;1251;69472;-90
2023/02/01 04:50:51;;;;;;;9.20;5.40;;;;;;;0.80;100.00;99996.77;109345;1251;73673;-91
2023/02/01 04:53:40;;;;;;;13.00;5.20;;;;;;;0.80;100.00;99994.20;109433;1252;62154;-91
2023/02/01 04:56:31;;;;;;;18.80;8.80;;;;;;;0.83;100.00;99995.73;109408;1252;60757;-90
2023/02/01 04:59:20;;;;;;;21.50;8.00;;;;;;;0.81;100.00;99996.75;109401;1253;75490;-89
2023/02/01 05:02:09;;;;;;;10.40;5.80;;;;;;;0.77;100.00;99996.44;109168;1253;68005;-89
2023/02/01 05:04:58;;;;;;;9.60;4.80;;;;;;;0.64;100.00;99998.15;109147;1251;73688;-91
2023/02/01 05:07:47;;;;;;;8.60;5.00;;;;;;;0.58;100.00;100001.51;109436;1251;60540;-90
2023/02/01 05:10:37;;;;;;;11.90;5.10;;;;;;;0.53;100.00;100004.66;109396;1251;60258;-90
2023/02/01 05:16:34;;;;;;;10.90;4.80;;;;;;;0.61;100.00;99999.36;109469;1251;69185;-90
2023/02/01 05:19:23;;;;;;;11.60;4.10;;;;;;;0.56;100.00;99997.15;109393;1253;72632;-90
2023/02/01 05:22:12;;;;;;;10.00;4.30;;;;;;;0.38;100.00;99997.13;109388;1253;60599;-91
2023/02/01 05:25:01;;;;;;;12.20;4.90;;;;;;;0.36;100.00;99998.73;109215;1254;60312;-90
2023/02/01 05:27:50;;;;;;;10.00;4.50;;;;;;;0.31;100.00;100002.50;109199;1254;73703;-91
2023/02/01 05:30:40;;;;;;;7.50;4.20;;;;;;;0.25;100.00;100003.31;109263;1253;69694;-90
2023/02/01 05:33:30;;;;;;;6.80;4.10;;;;;;;0.24;100.00;100004.64;109418;1253;73868;-89
2023/02/01 05:36:19;;;;;;;10.50;5.10;;;;;;;0.16;100.00;100007.38;109276;1253;62808;-90
2023/02/01 05:39:07;;;;;;;9.80;4.20;;;;;;;0.13;100.00;100016.62;109615;1252;59982;-90
2023/02/01 05:41:56;;;;;;;9.40;4.20;;;;;;;0.11;100.00;100019.89;109673;1251;73777;-90
2023/02/01 05:44:45;;;;;;;10.90;5.50;;;;;;;0.07;100.00;100022.46;109395;1254;68462;-90
2023/02/01 05:47:34;;;;;;;12.10;6.00;;;;;;;0.06;100.00;100022.92;109270;1253;73384;-90
2023/02/01 05:50:23;;;;;;;15.70;4.10;;;;;;;0.09;100.00;100024.92;109308;1253;59613;-89
2023/02/01 05:53:17;;;;;;;10.60;4.80;;;;;;;0.09;100.00;100026.91;109099;1254;61933;-90
2023/02/01 05:56:06;;;;;;;9.50;4.70;;;;;;;0.12;100.00;100027.87;109308;1253;74872;-90
2023/02/01 05:58:55;;;;;;;10.00;5.20;;;;;;;0.13;100.00;100027.86;109293;1253;68623;-90
2023/02/01 06:01:44;;;;;;;13.60;4.50;;;;;;;0.12;100.00;100030.67;109337;1253;73642;-90
2023/02/01 06:04:33;;;;;;;12.00;5.10;;;;;;;0.14;100.00;100034.55;109390;1253;59401;-91
2023/02/01 06:07:22;;;;;;;13.00;5.40;;;;;;;-0.05;100.00;100033.31;109248;1254;60051;-90
2023/02/01 06:10:11;;;;;;;14.00;5.00;;;;;;;-0.09;100.00;100031.58;109388;1253;73788;-89
2023/02/01 06:13:00;;;;;;;11.60;5.30;;;;;;;-0.07;100.00;100032.45;109399;1256;68664;-89
2023/02/01 06:15:49;;;;;;;9.50;4.30;;;;;;;-0.07;100.00;100030.52;109286;1253;72681;-89
2023/02/01 06:18:38;;;;;;;16.30;5.10;;;;;;;-0.05;100.00;100028.59;109344;1253;60517;-90
2023/02/01 06:21:27;;;;;;;13.60;4.70;;;;;;;-0.02;100.00;100029.52;109252;1253;60308;-92
2023/02/01 06:24:16;;;;;;;10.70;4.30;;;;;;;-0.10;100.00;100032.40;109332;1254;74807;-88
2023/02/01 06:27:05;;;;;;;12.20;5.10;;;;;;;-0.10;100.00;100040.41;109211;1253;69257;-91
2023/02/01 06:29:54;;;;;;;14.60;6.20;;;;;;;-0.11;100.00;100037.62;109273;1254;72690;-89
2023/02/01 06:32:43;;;;;;;12.60;5.60;;;;;;;-0.15;100.00;100032.02;109303;1254;60636;-89
2023/02/01 06:35:34;;;;;;;11.80;6.00;;;;;;;-0.18;100.00;100034.95;109322;1254;60047;-88
2023/02/01 06:38:24;;;;;;;13.50;5.80;;;;;;;-0.23;100.00;100037.26;109351;1253;75016;-89
2023/02/01 06:41:13;;;;;;;14.10;6.20;;;;;;;-0.27;100.00;100037.88;109429;1253;69362;-89
2023/02/01 06:44:03;;;;;;;9.20;4.80;;;;;;;-0.31;100.00;100039.70;109418;1252;72532;-88
2023/02/01 06:46:52;;;;;;;10.10;3.80;;;;;;;-0.32;100.00;100040.05;109371;1251;60538;-88
2023/02/01 06:49:41;;;;;;;11.10;4.80;;;;;;;-0.32;100.00;100036.58;109370;1251;60037;-88
2023/02/01 06:52:30;;;;;;;9.90;4.80;;;;;;;-0.26;100.00;100040.26;109394;1253;74800;-88
2023/02/01 06:55:19;;;;;;;10.40;4.50;;;;;;;-0.22;100.00;100038.98;109322;1252;69682;-88
2023/02/01 06:58:08;;;;;;;13.60;4.90;;;;;;;-0.08;100.00;100036.89;109414;1254;72457;-88
2023/02/01 07:00:57;;;;;;;11.20;4.00;;;;;;;0.03;100.00;100036.39;109246;1253;61895;-88
2023/02/01 07:03:50;;;;;;;14.40;6.20;;;;;;;0.10;100.00;100039.38;109391;1254;61387;-87
2023/02/01 07:06:39;;;;;;;10.00;4.40;;;;;;;0.20;100.00;100037.30;109282;1253;74497;-88
2023/02/01 07:09:30;;;;;;;10.80;4.60;;;;;;;0.26;100.00;100039.72;109390;1254;68765;-88
2023/02/01 07:12:19;;;;;;;14.40;4.40;;;;;;;0.41;100.00;100038.34;109352;1254;73673;-88
2023/02/01 07:15:10;;;;;;;13.20;4.90;;;;;;;0.57;100.00;100034.39;109339;1253;60858;-89
2023/02/01 07:17:58;;;;;;;16.30;5.80;;;;;;;0.84;100.00;100032.86;109409;1253;60028;-88
2023/02/01 07:20:51;;;;;;;12.40;4.80;;;;;;;1.15;100.00;100035.52;109429;1252;75052;-89
2023/02/01 07:23:39;;;;;;;9.70;5.40;;;;;;;1.30;100.00;100033.11;109449;1252;69657;-90
2023/02/01 07:26:29;;;;;;;14.00;4.50;;;;;;;1.57;100.00;100034.67;109406;1252;73580;-89
2023/02/01 07:29:18;;;;;;;8.20;4.00;;;;;;;1.78;100.00;100032.02;109359;1253;60511;-88
2023/02/01 07:32:07;;;;;;;10.80;4.70;;;;;;;2.02;100.00;100028.52;109195;1256;61276;-89
2023/02/01 07:34:57;;;;;;;11.00;4.60;;;;;;;2.23;100.00;100026.02;109254;1254;73828;-89
2023/02/01 07:37:46;;;;;;;12.80;4.10;;;;;;;2.39;100.00;100026.39;109393;1252;69951;-90
2023/02/01 07:40:34;;;;;;;8.60;4.30;;;;;;;2.53;100.00;100025.30;109365;1256;72677;-90
2023/02/01 07:43:23;;;;;;;10.00;4.50;;;;;;;2.61;100.00;100025.80;109344;1253;60569;-90
2023/02/01 07:46:12;;;;;;;9.80;4.10;;;;;;;2.67;100.00;100024.98;109234;1253;60187;-89
2023/02/01 07:49:01;;;;;;;11.30;4.10;;;;;;;2.77;100.00;100026.83;109275;1254;75371;-91
2023/02/01 07:51:50;;;;;;;13.30;4.50;;;;;;;2.87;100.00;100024.99;109448;1252;68491;-89
2023/02/01 07:54:39;;;;;;;10.90;3.90;;;;;;;2.92;100.00;100022.06;109222;1253;72356;-89
2023/02/01 07:57:28;;;;;;;13.40;3.80;;;;;;;2.91;100.00;100014.54;109448;1251;62586;-89
2023/02/01 08:03:26;;;;;;;11.30;4.10;;;;;;;3.03;100.00;100013.85;109301;1253;75752;-91
2023/02/01 08:06:15;;;;;;;9.60;4.00;;;;;;;3.06;100.00;100010.95;109385;1252;68221;-89
2023/02/01 08:09:07;;;;;;;9.80;4.00;;;;;;;3.12;100.00;100007.33;109178;1254;73635;-89
2023/02/01 08:11:56;;;;;;;12.00;4.30;;;;;;;3.21;100.00;100009.34;109293;1253;64007;-89
2023/02/01 08:14:47;;;;;;;9.50;3.80;;;;;;;3.27;100.00;100002.27;109236;1252;60339;-90
2023/02/01 08:17:36;;;;;;;9.00;4.10;;;;;;;3.27;100.00;100004.21;109200;1254;74249;-90
2023/02/01 08:20:25;;;;;;;9.00;4.00;;;;;;;3.31;100.00;100004.29;109394;1253;69975;-90
2023/02/01 08:23:15;;;;;;;11.60;4.50;;;;;;;3.31;100.00;100003.52;109228;1253;73913;-90
2023/02/01 08:26:11;;;;;;;9.00;3.60;;;;;;;3.21;100.00;99999.52;109350;1253;60466;-90
2023/02/01 08:29:02;;;;;;;7.40;3.60;;;;;;;3.29;100.00;100000.79;109260;1252;61208;-90
2023/02/01 08:31:51;;;;;;;13.00;4.70;;;;;;;3.39;100.00;100004.11;109272;1253;74015;-91
2023/02/01 08:34:40;;;;;;;10.60;4.70;;;;;;;3.39;100.00;100003.23;109356;1253;68515;-90
2023/02/01 08:37:29;;;;;;;9.40;3.70;;;;;;;3.34;100.00;100004.30;109055;1253;72561;-92
2023/02/01 08:40:19;;;;;;;10.40;4.30;;;;;;;3.40;100.00;99989.50;109347;1254;61079;-91
2023/02/01 08:43:09;;;;;;;10.60;4.40;;;;;;;3.42;100.00;99991.09;109233;1253;59293;-91
2023/02/01 08:45:58;;;;;;;12.40;4.30;;;;;;;3.54;100.00;99987.34;109129;1253;75251;-91
2023/02/01 08:48:47;;;;;;;11.40;3.50;;;;;;;3.65;100.00;99987.79;109191;1254;69317;-92
2023/02/01 08:51:36;;;;;;;6.40;3.70;;;;;;;3.67;100.00;99984.05;109191;1253;74804;-90
2023/02/01 08:54:25;;;;;;;11.70;4.10;;;;;;;3.71;100.00;99974.60;109211;1253;60919;-92
2023/02/01 08:57:14;;;;;;;17.60;4.60;;;;;;;3.78;100.00;99976.98;109164;1253;59920;-90
2023/02/01 09:00:04;;;;;;;7.40;3.80;;;;;;;3.87;100.00;99971.20;109211;1253;75007;-91
2023/02/01 09:02:53;;;;;;;9.90;4.60;;;;;;;3.95;100.00;99971.63;109079;1253;68227;-91
2023/02/01 09:05:42;;;;;;;9.50;3.90;;;;;;;4.02;100.00;99966.20;109286;1253;73586;-91
2023/02/01 09:08:38;;;;;;;11.90;4.30;;;;;;;4.02;100.00;99959.23;109547;1252;61200;-91
2023/02/01 09:11:27;;;;;;;10.50;4.50;;;;;;;4.07;100.00;99957.21;109398;1254;60074;-90
2023/02/01 09:14:17;;;;;;;10.80;4.30;;;;;;;4.15;100.00;99956.71;109126;1256;74909;-90
2023/02/01 09:17:06;;;;;;;7.10;3.90;;;;;;;4.25;100.00;99955.61;109349;1253;68848;-90
2023/02/01 09:19:55;;;;;;;8.90;4.10;;;;;;;4.30;100.00;99952.92;109255;1252;73718;-91
2023/02/01 09:22:44;;;;;;;11.40;4.80;;;;;;;4.32;100.00;99954.35;109252;1254;60470;-91
2023/02/01 09:25:33;;;;;;;8.80;4.20;;;;;;;4.25;100.00;99946.81;109257;1252;61538;-90
2023/02/01 09:28:22;;;;;;;16.10;4.70;;;;;;;4.22;100.00;99947.19;109392;1253;75502;-92
2023/02/01 09:31:11;;;;;;;13.80;4.80;;;;;;;4.21;100.00;99945.02;109076;1254;69825;-91
2023/02/01 09:34:01;;;;;;;9.30;4.30;;;;;;;4.21;100.00;99938.90;109225;1253;72704;-91
2023/02/01 09:36:49;;;;;;;7.60;4.50;;;;;;;4.23;100.00;99934.35;109251;1252;59980;-91
2023/02/01 09:39:38;;;;;;;8.50;4.40;;;;;;;4.26;100.00;99931.52;109278;1253;60096;-91
2023/02/01 09:42:41;;;;;;;11.20;5.00;;;;;;;4.33;100.00;99931.05;109262;1253;75008;-92
2023/02/01 09:45:48;;;;;;;11.20;4.60;;;;;;;4.37;100.00;99930.15;109306;1253;69637;-92
2023/02/01 09:48:39;;;;;;;12.40;5.30;;;;;;;4.40;100.00;99930.52;109354;1253;73453;-93
2023/02/01 09:51:36;;;;;;;15.10;4.60;;;;;;;4.40;100.00;99929.20;109054;1254;60875;-92
2023/02/01 09:54:27;;;;;;;9.80;4.10;;;;;;;4.42;100.00;99924.89;109061;1253;61348;-91
2023/02/01 09:57:39;;;;;;;12.50;4.50;;;;;;;4.46;100.00;99924.06;109073;1253;74903;-93
2023/02/01 12:06:28;;;;;;;2.70;1.60;;;;;;;2.83;100.00;99813.51;105395;1294;600425;-92
2023/02/01 12:09:36;;;;;;;4.30;2.10;;;;;;;2.78;100.00;99808.61;108526;1261;58554;-92
2023/02/01 12:12:37;;;;;;;4.20;2.00;;;;;;;2.76;100.00;99805.62;108609;1261;61192;-91
2023/02/01 12:15:29;;;;;;;3.50;2.00;;;;;;;2.75;100.00;99806.84;108524;1263;73274;-92
2023/02/01 12:18:25;;;;;;;4.20;2.30;;;;;;;2.74;100.00;99803.85;108530;1265;69952;-92
2023/02/01 12:21:22;;;;;;;4.10;2.10;;;;;;;2.74;100.00;99801.48;108952;1254;74917;-91
2023/02/01 12:24:24;;;;;;;6.00;2.10;;;;;;;2.76;100.00;99804.25;108921;1254;59288;-91
2023/02/01 12:27:19;;;;;;;5.00;2.00;;;;;;;2.84;100.00;99811.36;109094;1253;60421;-92
2023/02/01 12:30:45;;;;;;;5.30;2.30;;;;;;;2.98;100.00;99809.00;109241;1254;71342;-90
2023/02/01 12:33:46;;;;;;;7.10;2.30;;;;;;;3.18;100.00;99802.50;109232;1254;70100;-90
2023/02/01 12:37:06;;;;;;;2.80;1.80;;;;;;;3.30;100.00;99801.67;109301;1254;72672;-91
2023/02/01 12:40:39;;;;;;;5.50;2.20;;;;;;;3.38;100.00;99800.23;109252;1254;60481;-91
2023/02/01 12:43:37;;;;;;;5.10;2.50;;;;;;;3.36;100.00;99798.90;108911;1254;60393;-92
2023/02/01 12:46:33;;;;;;;5.00;2.80;;;;;;;3.30;100.00;99798.15;109187;1254;74163;-89
2023/02/01 12:49:43;;;;;;;4.70;2.40;;;;;;;3.22;100.00;99796.58;108996;1257;69734;-90
2023/02/01 12:52:43;;;;;;;8.10;3.10;;;;;;;3.17;100.00;99795.48;109155;1254;73561;-90
2023/02/01 12:55:32;;;;;;;5.50;2.40;;;;;;;3.14;100.00;99792.17;109336;1254;60787;-91
2023/02/01 12:58:35;;;;;;;6.50;2.60;;;;;;;3.13;100.00;99790.12;109385;1254;61577;-92
2023/02/01 13:01:43;;;;;;;6.80;3.20;;;;;;;3.13;100.00;99786.23;109054;1253;72601;-91
2023/02/01 13:04:38;;;;;;;10.70;3.00;;;;;;;3.11;100.00;99782.59;109125;1254;70471;-89
2023/02/01 13:07:35;;;;;;;7.90;3.40;;;;;;;3.07;100.00;99787.45;109247;1253;72217;-89
2023/02/01 13:10:28;;;;;;;6.20;3.20;;;;;;;3.07;100.00;99787.88;109278;1254;60667;-90
2023/02/01 13:14:12;;;;;;;8.80;3.80;;;;;;;3.05;100.00;99793.18;109419;1253;60257;-90
2023/02/01 13:17:20;;;;;;;7.20;3.90;;;;;;;3.00;100.00;99795.91;108794;1261;72267;-91
2023/02/01 13:20:30;;;;;;;8.20;3.60;;;;;;;2.93;100.00;99797.79;109192;1253;68602;-90
2023/02/01 13:23:24;;;;;;;7.40;2.80;;;;;;;2.87;100.00;99794.95;109160;1254;74738;-90
2023/02/01 13:26:15;;;;;;;6.40;3.10;;;;;;;2.85;100.00;99796.20;109348;1254;59219;-90
2023/02/01 13:29:05;;;;;;;10.80;4.70;;;;;;;2.82;100.00;99796.48;109377;1254;59476;-92
2023/02/01 13:32:15;;;;;;;12.30;3.90;;;;;;;2.78;100.00;99795.33;109206;1253;74272;-90
2023/02/01 13:35:44;;;;;;;7.30;3.90;;;;;;;2.72;100.00;99789.78;109260;1254;69390;-90
2023/02/01 13:39:01;;;;;;;11.50;3.60;;;;;;;2.67;100.00;99785.54;109401;1253;72702;-90
2023/02/01 13:42:13;;;;;;;8.60;3.50;;;;;;;2.63;100.00;99782.70;109278;1254;59856;-89
2023/02/01 13:45:04;;;;;;;8.40;4.50;;;;;;;2.60;100.00;99779.11;109383;1253;61331;-89
2023/02/01 13:47:55;;;;;;;12.10;3.70;;;;;;;2.57;100.00;99782.52;109383;1254;71929;-91
2023/02/01 13:50:44;;;;;;;9.20;4.40;;;;;;;2.55;100.00;99784.48;109131;1254;69379;-89
2023/02/01 13:53:37;;;;;;;7.90;3.70;;;;;;;2.53;100.00;99778.73;109166;1254;73519;-90
2023/02/01 13:56:25;;;;;;;6.80;4.40;;;;;;;2.49;100.00;99773.05;109229;1253;60003;-89
2023/02/01 13:59:39;;;;;;;21.90;9.50;;;;;;;2.46;100.00;99771.70;109286;1253;61257;-89
2023/02/01 14:02:38;;;;;;;16.80;6.80;;;;;;;2.43;100.00;99770.02;109383;1254;74867;-90
2023/02/01 14:05:27;;;;;;;11.30;4.00;;;;;;;2.42;100.00;99772.05;109360;1254;69381;-92
2023/02/01 14:08:40;;;;;;;8.90;3.60;;;;;;;2.39;100.00;99774.90;109322;1254;72412;-91
2023/02/01 14:11:42;;;;;;;9.20;3.30;;;;;;;2.34;100.00;99775.52;109380;1253;60490;-90
2023/02/01 14:14:31;;;;;;;8.60;3.80;;;;;;;2.30;100.00;99775.72;109285;1254;60131;-90
2023/02/01 14:17:23;;;;;;;7.30;3.70;;;;;;;2.29;100.00;99783.40;109428;1252;73176;-89
2023/02/01 14:20:38;;;;;;;7.80;3.60;;;;;;;2.24;100.00;99784.18;109373;1253;70011;-92
2023/02/01 14:23:29;;;;;;;7.80;3.10;;;;;;;2.19;100.00;99783.96;109203;1254;72718;-91
2023/02/01 14:26:25;;;;;;;10.40;2.70;;;;;;;2.14;100.00;99783.28;109245;1254;59996;-90
2023/02/01 14:29:33;;;;;;;8.70;2.70;;;;;;;2.10;100.00;99782.62;109183;1251;61374;-89
2023/02/01 14:32:25;;;;;;;6.70;3.00;;;;;;;2.04;100.00;99786.06;109304;1252;74722;-90
2023/02/01 14:35:40;;;;;;;7.00;2.90;;;;;;;1.99;100.00;99789.98;109377;1254;69516;-90
2023/02/01 14:38:32;;;;;;;8.00;3.20;;;;;;;1.94;100.00;99788.59;109295;1253;72692;-91
2023/02/01 14:41:33;;;;;;;5.60;2.70;;;;;;;1.89;100.00;99792.59;109168;1253;60928;-91
2023/02/01 14:44:27;;;;;;;6.40;3.20;;;;;;;1.83;100.00;99797.33;109333;1251;61327;-91
2023/02/01 14:47:19;;;;;;;9.60;3.00;;;;;;;1.77;100.00;99801.52;109324;1251;73095;-92
2023/02/01 14:50:13;;;;;;;6.00;3.10;;;;;;;1.70;100.00;99801.15;109490;1251;69022;-90
2023/02/01 14:56:05;;;;;;;7.70;3.20;;;;;;;1.59;100.00;99804.40;109336;1252;62363;-92
2023/02/01 14:59:03;;;;;;;4.70;2.80;;;;;;;1.53;100.00;99808.48;109402;1254;59223;-90
2023/02/01 15:01:55;;;;;;;6.60;3.50;;;;;;;1.47;100.00;99804.80;109272;1254;74304;-92
2023/02/01 15:04:44;;;;;;;7.30;3.30;;;;;;;1.41;100.00;99808.14;109196;1254;69703;-91
2023/02/01 15:07:33;;;;;;;7.40;3.10;;;;;;;1.36;100.00;99809.80;109264;1254;73729;-91
2023/02/01 15:10:22;;;;;;;6.50;2.90;;;;;;;1.33;100.00;99812.23;109355;1254;61228;-90
2023/02/01 15:13:19;;;;;;;9.20;2.90;;;;;;;1.29;100.00;99813.96;109285;1251;60398;-92
2023/02/01 15:16:12;;;;;;;7.40;3.30;;;;;;;1.26;100.00;99819.77;109265;1253;73240;-92
2023/02/01 15:19:07;;;;;;;;;;;;;;;1.24;100.00;99818.52;109452;1252;68705;-90
2023/02/01 15:21:58;;;;;;;6.40;3.00;;;;;;;1.21;100.00;99823.39;109337;1251;72652;-92
2023/02/01 15:24:57;;;;;;;10.10;3.20;;;;;;;1.17;100.00;99818.05;109361;1251;58510;-91
2023/02/01 15:27:46;;;;;;;5.20;2.70;;;;;;;1.14;100.00;99820.98;109335;1251;60045;-91
2023/02/01 15:30:35;;;;;;;12.50;4.00;;;;;;;1.10;100.00;99823.20;109375;1251;74291;-92
2023/02/01 15:33:25;;;;;;;5.00;2.60;;;;;;;1.06;100.00;99824.63;109406;1251;68640;-91
2023/02/01 15:36:22;;;;;;;6.50;2.40;;;;;;;1.05;100.00;99830.36;109274;1254;73673;-90
2023/02/01 15:39:19;;;;;;;4.80;3.20;;;;;;;1.01;100.00;99828.59;109250;1252;61171;-92
2023/02/01 15:42:15;;;;;;;5.60;3.10;;;;;;;0.93;100.00;99826.80;109265;1252;62033;-91
2023/02/01 15:45:17;;;;;;;5.40;3.10;;;;;;;0.91;100.00;99831.88;109145;1253;72981;-92
2023/02/01 15:48:11;;;;;;;7.40;3.10;;;;;;;0.90;100.00;99833.75;109301;1254;70039;-91
2023/02/01 15:51:00;;;;;;;10.40;3.80;;;;;;;0.87;100.00;99835.71;109202;1252;72709;-92